sensor_id;sensor_type;location;lat;lon;timestamp;P1;durP1;ratioP1;P2;durP2;ratioP2
51927;SDS011;37953;52.806;18.270;2022-08-19T00:00:06;14.48;;;9.63;;
51927;SDS011;37953;52.806;18.270;2022-08-19T00:02:54;14.85;;;9.25;;
51927;SDS011;37953;52.806;18.270;2022-08-19T00:05:21;13.02;;;9.52;;
51927;SDS011;37953;52.806;18.270;2022-08-19T00:07:47;13.43;;;9.75;;
51927;SDS011;37953;52.806;18.270;2022-08-19T00:10:14;14.73;;;9.48;;
51927;SDS011;37953;52.806;18.270;2022-08-19T00:12:43;14.90;;;9.25;;
51927;SDS011;37953;52.806;18.270;2022-08-19T00:15:10;15.80;;;9.55;;
51927;SDS011;37953;52.806;18.270;2022-08-19T00:17:39;14.23;;;9.23;;
51927;SDS011;37953;52.806;18.270;2022-08-19T00:20:07;13.80;;;9.25;;
51927;SDS011;37953;52.806;18.270;2022-08-19T00:22:36;18.58;;;9.77;;
51927;SDS011;37953;52.806;18.270;2022-08-19T00:25:03;15.77;;;9.40;;
51927;SDS011;37953;52.806;18.270;2022-08-19T00:27:31;16.88;;;9.68;;
51927;SDS011;37953;52.806;18.270;2022-08-19T00:29:57;19.95;;;10.10;;
51927;SDS011;37953;52.806;18.270;2022-08-19T00:32:24;21.45;;;10.27;;
51927;SDS011;37953;52.806;18.270;2022-08-19T00:34:52;18.98;;;10.70;;
51927;SDS011;37953;52.806;18.270;2022-08-19T00:37:19;13.65;;;9.32;;
51927;SDS011;37953;52.806;18.270;2022-08-19T00:39:49;16.13;;;10.47;;
51927;SDS011;37953;52.806;18.270;2022-08-19T00:42:18;17.02;;;10.43;;
51927;SDS011;37953;52.806;18.270;2022-08-19T00:44:45;16.40;;;9.80;;
51927;SDS011;37953;52.806;18.270;2022-08-19T00:47:12;18.90;;;10.48;;
51927;SDS011;37953;52.806;18.270;2022-08-19T00:49:41;15.10;;;9.90;;
51927;SDS011;37953;52.806;18.270;2022-08-19T00:52:13;13.90;;;9.52;;
51927;SDS011;37953;52.806;18.270;2022-08-19T00:54:46;18.27;;;10.40;;
51927;SDS011;37953;52.806;18.270;2022-08-19T00:57:15;14.43;;;9.27;;
51927;SDS011;37953;52.806;18.270;2022-08-19T00:59:44;14.25;;;10.52;;
51927;SDS011;37953;52.806;18.270;2022-08-19T01:02:14;16.17;;;10.48;;
51927;SDS011;37953;52.806;18.270;2022-08-19T01:04:41;16.30;;;11.00;;
51927;SDS011;37953;52.806;18.270;2022-08-19T01:07:07;15.32;;;11.27;;
51927;SDS011;37953;52.806;18.270;2022-08-19T01:09:34;22.55;;;11.10;;
51927;SDS011;37953;52.806;18.270;2022-08-19T01:12:00;20.40;;;10.57;;
51927;SDS011;37953;52.806;18.270;2022-08-19T01:14:26;15.60;;;10.45;;
51927;SDS011;37953;52.806;18.270;2022-08-19T01:16:53;15.50;;;10.73;;
51927;SDS011;37953;52.806;18.270;2022-08-19T01:19:35;19.05;;;10.77;;
51927;SDS011;37953;52.806;18.270;2022-08-19T01:22:27;15.25;;;9.82;;
51927;SDS011;37953;52.806;18.270;2022-08-19T01:25:01;15.45;;;10.45;;
51927;SDS011;37953;52.806;18.270;2022-08-19T01:27:36;15.98;;;10.50;;
51927;SDS011;37953;52.806;18.270;2022-08-19T01:30:04;15.43;;;10.50;;
51927;SDS011;37953;52.806;18.270;2022-08-19T01:32:32;16.67;;;10.50;;
51927;SDS011;37953;52.806;18.270;2022-08-19T01:34:59;16.08;;;10.05;;
51927;SDS011;37953;52.806;18.270;2022-08-19T01:37:27;16.30;;;9.70;;
51927;SDS011;37953;52.806;18.270;2022-08-19T01:39:55;17.40;;;10.35;;
51927;SDS011;37953;52.806;18.270;2022-08-19T01:42:21;16.70;;;10.23;;
51927;SDS011;37953;52.806;18.270;2022-08-19T01:44:47;15.15;;;10.85;;
51927;SDS011;37953;52.806;18.270;2022-08-19T01:47:14;14.80;;;10.48;;
51927;SDS011;37953;52.806;18.270;2022-08-19T01:49:40;15.23;;;10.43;;
51927;SDS011;37953;52.806;18.270;2022-08-19T01:52:06;18.85;;;10.10;;
51927;SDS011;37953;52.806;18.270;2022-08-19T01:54:33;17.70;;;10.20;;
51927;SDS011;37953;52.806;18.270;2022-08-19T01:57:09;30.45;;;12.25;;
51927;SDS011;37953;52.806;18.270;2022-08-19T01:59:39;16.50;;;10.75;;
51927;SDS011;37953;52.806;18.270;2022-08-19T02:02:06;15.30;;;10.80;;
51927;SDS011;37953;52.806;18.270;2022-08-19T02:04:34;16.52;;;11.07;;
51927;SDS011;37953;52.806;18.270;2022-08-19T02:07:01;18.60;;;10.48;;
51927;SDS011;37953;52.806;18.270;2022-08-19T02:09:28;16.42;;;10.77;;
51927;SDS011;37953;52.806;18.270;2022-08-19T02:11:53;22.25;;;11.50;;
51927;SDS011;37953;52.806;18.270;2022-08-19T02:14:20;19.75;;;11.27;;
51927;SDS011;37953;52.806;18.270;2022-08-19T02:16:47;16.75;;;10.40;;
51927;SDS011;37953;52.806;18.270;2022-08-19T02:19:13;16.50;;;10.45;;
51927;SDS011;37953;52.806;18.270;2022-08-19T02:21:40;14.38;;;10.77;;
51927;SDS011;37953;52.806;18.270;2022-08-19T02:24:06;17.38;;;10.90;;
51927;SDS011;37953;52.806;18.270;2022-08-19T02:26:32;16.88;;;11.02;;
51927;SDS011;37953;52.806;18.270;2022-08-19T02:28:59;19.75;;;10.82;;
51927;SDS011;37953;52.806;18.270;2022-08-19T02:31:25;15.10;;;11.00;;
51927;SDS011;37953;52.806;18.270;2022-08-19T02:33:53;14.55;;;10.73;;
51927;SDS011;37953;52.806;18.270;2022-08-19T02:36:21;15.43;;;10.57;;
51927;SDS011;37953;52.806;18.270;2022-08-19T02:38:48;19.88;;;11.63;;
51927;SDS011;37953;52.806;18.270;2022-08-19T02:41:19;18.17;;;11.15;;
51927;SDS011;37953;52.806;18.270;2022-08-19T02:43:51;22.42;;;11.23;;
51927;SDS011;37953;52.806;18.270;2022-08-19T02:46:21;14.23;;;10.85;;
51927;SDS011;37953;52.806;18.270;2022-08-19T02:48:50;19.98;;;11.10;;
51927;SDS011;37953;52.806;18.270;2022-08-19T02:51:28;18.80;;;10.85;;
51927;SDS011;37953;52.806;18.270;2022-08-19T02:53:58;18.30;;;10.82;;
51927;SDS011;37953;52.806;18.270;2022-08-19T02:56:25;19.08;;;10.98;;
51927;SDS011;37953;52.806;18.270;2022-08-19T02:58:53;15.70;;;10.52;;
51927;SDS011;37953;52.806;18.270;2022-08-19T03:01:24;17.00;;;10.60;;
51927;SDS011;37953;52.806;18.270;2022-08-19T03:03:53;19.48;;;11.18;;
51927;SDS011;37953;52.806;18.270;2022-08-19T03:06:20;17.83;;;11.05;;
51927;SDS011;37953;52.806;18.270;2022-08-19T03:08:47;16.90;;;11.48;;
51927;SDS011;37953;52.806;18.270;2022-08-19T03:11:22;20.00;;;11.30;;
51927;SDS011;37953;52.806;18.270;2022-08-19T03:13:51;20.10;;;10.90;;
51927;SDS011;37953;52.806;18.270;2022-08-19T03:16:19;16.27;;;10.75;;
51927;SDS011;37953;52.806;18.270;2022-08-19T03:18:47;20.23;;;11.60;;
51927;SDS011;37953;52.806;18.270;2022-08-19T03:21:19;20.15;;;10.88;;
51927;SDS011;37953;52.806;18.270;2022-08-19T03:23:47;25.75;;;11.57;;
51927;SDS011;37953;52.806;18.270;2022-08-19T03:26:13;17.02;;;11.15;;
51927;SDS011;37953;52.806;18.270;2022-08-19T03:28:40;18.88;;;11.35;;
51927;SDS011;37953;52.806;18.270;2022-08-19T03:31:09;18.58;;;10.75;;
51927;SDS011;37953;52.806;18.270;2022-08-19T03:33:37;19.05;;;11.07;;
51927;SDS011;37953;52.806;18.270;2022-08-19T03:36:04;18.17;;;11.23;;
51927;SDS011;37953;52.806;18.270;2022-08-19T03:38:38;18.63;;;11.20;;
51927;SDS011;37953;52.806;18.270;2022-08-19T03:41:10;21.60;;;11.55;;
51927;SDS011;37953;52.806;18.270;2022-08-19T03:43:39;22.33;;;11.07;;
51927;SDS011;37953;52.806;18.270;2022-08-19T03:46:09;22.80;;;10.73;;
51927;SDS011;37953;52.806;18.270;2022-08-19T03:48:37;15.38;;;10.18;;
51927;SDS011;37953;52.806;18.270;2022-08-19T03:51:06;16.42;;;10.55;;
51927;SDS011;37953;52.806;18.270;2022-08-19T03:53:33;14.52;;;10.52;;
51927;SDS011;37953;52.806;18.270;2022-08-19T03:56:00;18.95;;;11.23;;
51927;SDS011;37953;52.806;18.270;2022-08-19T03:58:28;16.83;;;11.00;;
51927;SDS011;37953;52.806;18.270;2022-08-19T04:00:55;17.05;;;10.30;;
51927;SDS011;37953;52.806;18.270;2022-08-19T04:03:22;18.73;;;11.30;;
51927;SDS011;37953;52.806;18.270;2022-08-19T04:05:50;18.35;;;10.65;;
51927;SDS011;37953;52.806;18.270;2022-08-19T04:08:16;15.27;;;10.68;;
51927;SDS011;37953;52.806;18.270;2022-08-19T04:10:45;19.73;;;10.43;;
51927;SDS011;37953;52.806;18.270;2022-08-19T04:13:17;22.25;;;11.38;;
51927;SDS011;37953;52.806;18.270;2022-08-19T04:15:44;17.47;;;7.53;;
51927;SDS011;37953;52.806;18.270;2022-08-19T04:18:11;19.67;;;10.93;;
51927;SDS011;37953;52.806;18.270;2022-08-19T04:20:45;22.45;;;11.50;;
51927;SDS011;37953;52.806;18.270;2022-08-19T04:23:13;16.42;;;11.05;;
51927;SDS011;37953;52.806;18.270;2022-08-19T04:25:42;16.23;;;10.68;;
51927;SDS011;37953;52.806;18.270;2022-08-19T04:28:10;21.90;;;10.98;;
51927;SDS011;37953;52.806;18.270;2022-08-19T04:30:39;22.50;;;11.48;;
51927;SDS011;37953;52.806;18.270;2022-08-19T04:33:10;21.67;;;11.32;;
51927;SDS011;37953;52.806;18.270;2022-08-19T04:35:42;18.52;;;11.18;;
51927;SDS011;37953;52.806;18.270;2022-08-19T04:38:11;17.55;;;11.27;;
51927;SDS011;37953;52.806;18.270;2022-08-19T04:40:41;16.20;;;11.10;;
51927;SDS011;37953;52.806;18.270;2022-08-19T04:43:27;22.57;;;10.70;;
51927;SDS011;37953;52.806;18.270;2022-08-19T04:45:53;23.85;;;12.00;;
51927;SDS011;37953;52.806;18.270;2022-08-19T04:48:20;18.10;;;10.25;;
51927;SDS011;37953;52.806;18.270;2022-08-19T04:50:52;24.00;;;13.38;;
51927;SDS011;37953;52.806;18.270;2022-08-19T04:53:26;20.02;;;11.93;;
51927;SDS011;37953;52.806;18.270;2022-08-19T04:55:57;22.73;;;11.77;;
51927;SDS011;37953;52.806;18.270;2022-08-19T04:58:25;25.15;;;10.80;;
51927;SDS011;37953;52.806;18.270;2022-08-19T05:00:53;15.82;;;11.07;;
51927;SDS011;37953;52.806;18.270;2022-08-19T05:03:20;18.17;;;10.98;;
51927;SDS011;37953;52.806;18.270;2022-08-19T05:05:47;20.90;;;11.25;;
51927;SDS011;37953;52.806;18.270;2022-08-19T05:08:15;25.58;;;12.10;;
51927;SDS011;37953;52.806;18.270;2022-08-19T05:10:47;26.77;;;11.52;;
51927;SDS011;37953;52.806;18.270;2022-08-19T05:13:18;65.30;;;14.98;;
51927;SDS011;37953;52.806;18.270;2022-08-19T05:15:53;21.33;;;10.35;;
51927;SDS011;37953;52.806;18.270;2022-08-19T05:18:23;17.25;;;9.73;;
51927;SDS011;37953;52.806;18.270;2022-08-19T05:21:12;21.08;;;9.98;;
51927;SDS011;37953;52.806;18.270;2022-08-19T05:23:59;17.38;;;9.10;;
51927;SDS011;37953;52.806;18.270;2022-08-19T05:26:25;18.38;;;10.20;;
51927;SDS011;37953;52.806;18.270;2022-08-19T05:28:52;22.88;;;11.13;;
51927;SDS011;37953;52.806;18.270;2022-08-19T05:31:19;13.95;;;9.48;;
51927;SDS011;37953;52.806;18.270;2022-08-19T05:33:46;13.30;;;9.50;;
51927;SDS011;37953;52.806;18.270;2022-08-19T05:36:12;13.88;;;9.07;;
51927;SDS011;37953;52.806;18.270;2022-08-19T05:38:39;17.33;;;9.25;;
51927;SDS011;37953;52.806;18.270;2022-08-19T05:41:09;17.17;;;9.77;;
51927;SDS011;37953;52.806;18.270;2022-08-19T05:43:36;16.13;;;9.13;;
51927;SDS011;37953;52.806;18.270;2022-08-19T05:46:04;16.77;;;8.68;;
51927;SDS011;37953;52.806;18.270;2022-08-19T05:48:32;20.48;;;9.32;;
51927;SDS011;37953;52.806;18.270;2022-08-19T05:51:03;15.68;;;9.38;;
51927;SDS011;37953;52.806;18.270;2022-08-19T05:53:34;16.58;;;9.57;;
51927;SDS011;37953;52.806;18.270;2022-08-19T05:56:07;15.00;;;9.85;;
51927;SDS011;37953;52.806;18.270;2022-08-19T05:58:35;15.88;;;9.60;;
51927;SDS011;37953;52.806;18.270;2022-08-19T06:01:03;18.13;;;11.18;;
51927;SDS011;37953;52.806;18.270;2022-08-19T06:03:34;19.02;;;12.65;;
51927;SDS011;37953;52.806;18.270;2022-08-19T06:06:03;16.85;;;11.98;;
51927;SDS011;37953;52.806;18.270;2022-08-19T06:08:30;30.00;;;18.15;;
51927;SDS011;37953;52.806;18.270;2022-08-19T06:10:57;14.93;;;9.45;;
51927;SDS011;37953;52.806;18.270;2022-08-19T06:13:23;20.88;;;11.30;;
51927;SDS011;37953;52.806;18.270;2022-08-19T06:15:51;16.20;;;12.38;;
51927;SDS011;37953;52.806;18.270;2022-08-19T06:18:16;12.13;;;8.38;;
51927;SDS011;37953;52.806;18.270;2022-08-19T06:20:43;20.95;;;12.88;;
51927;SDS011;37953;52.806;18.270;2022-08-19T06:23:09;16.65;;;11.73;;
51927;SDS011;37953;52.806;18.270;2022-08-19T06:25:35;15.88;;;11.75;;
51927;SDS011;37953;52.806;18.270;2022-08-19T06:28:02;18.85;;;13.55;;
51927;SDS011;37953;52.806;18.270;2022-08-19T06:30:28;16.92;;;10.52;;
51927;SDS011;37953;52.806;18.270;2022-08-19T06:32:54;15.35;;;9.18;;
51927;SDS011;37953;52.806;18.270;2022-08-19T06:35:21;19.98;;;12.40;;
51927;SDS011;37953;52.806;18.270;2022-08-19T06:37:47;14.35;;;9.45;;
51927;SDS011;37953;52.806;18.270;2022-08-19T06:40:13;17.30;;;10.40;;
51927;SDS011;37953;52.806;18.270;2022-08-19T06:42:40;14.32;;;11.15;;
51927;SDS011;37953;52.806;18.270;2022-08-19T06:45:06;11.98;;;8.77;;
51927;SDS011;37953;52.806;18.270;2022-08-19T06:47:34;14.48;;;9.20;;
51927;SDS011;37953;52.806;18.270;2022-08-19T06:50:00;14.43;;;9.52;;
51927;SDS011;37953;52.806;18.270;2022-08-19T06:52:32;13.88;;;8.77;;
51927;SDS011;37953;52.806;18.270;2022-08-19T06:54:59;14.02;;;9.88;;
51927;SDS011;37953;52.806;18.270;2022-08-19T06:57:27;16.40;;;8.82;;
51927;SDS011;37953;52.806;18.270;2022-08-19T06:59:58;10.90;;;8.98;;
51927;SDS011;37953;52.806;18.270;2022-08-19T07:02:25;15.30;;;9.50;;
51927;SDS011;37953;52.806;18.270;2022-08-19T07:04:52;14.57;;;7.75;;
51927;SDS011;37953;52.806;18.270;2022-08-19T07:07:19;12.32;;;7.10;;
51927;SDS011;37953;52.806;18.270;2022-08-19T07:09:46;11.13;;;7.28;;
51927;SDS011;37953;52.806;18.270;2022-08-19T07:12:13;11.77;;;7.60;;
51927;SDS011;37953;52.806;18.270;2022-08-19T07:14:42;11.82;;;7.30;;
51927;SDS011;37953;52.806;18.270;2022-08-19T07:17:10;9.88;;;7.00;;
51927;SDS011;37953;52.806;18.270;2022-08-19T07:19:38;14.25;;;6.57;;
51927;SDS011;37953;52.806;18.270;2022-08-19T07:22:06;16.30;;;7.35;;
51927;SDS011;37953;52.806;18.270;2022-08-19T07:24:34;14.90;;;7.32;;
51927;SDS011;37953;52.806;18.270;2022-08-19T07:27:02;11.02;;;7.20;;
51927;SDS011;37953;52.806;18.270;2022-08-19T07:29:32;12.60;;;6.78;;
51927;SDS011;37953;52.806;18.270;2022-08-19T07:32:00;10.32;;;6.93;;
51927;SDS011;37953;52.806;18.270;2022-08-19T07:34:28;9.82;;;6.45;;
51927;SDS011;37953;52.806;18.270;2022-08-19T07:36:56;9.30;;;6.18;;
51927;SDS011;37953;52.806;18.270;2022-08-19T07:39:25;10.25;;;6.70;;
51927;SDS011;37953;52.806;18.270;2022-08-19T07:41:55;8.50;;;6.75;;
51927;SDS011;37953;52.806;18.270;2022-08-19T07:44:24;9.25;;;6.38;;
51927;SDS011;37953;52.806;18.270;2022-08-19T07:46:52;12.00;;;6.55;;
51927;SDS011;37953;52.806;18.270;2022-08-19T07:49:22;11.82;;;6.53;;
51927;SDS011;37953;52.806;18.270;2022-08-19T07:51:50;11.00;;;6.55;;
51927;SDS011;37953;52.806;18.270;2022-08-19T07:54:20;12.57;;;6.40;;
51927;SDS011;37953;52.806;18.270;2022-08-19T07:56:48;16.20;;;6.87;;
51927;SDS011;37953;52.806;18.270;2022-08-19T07:59:16;8.52;;;6.35;;
51927;SDS011;37953;52.806;18.270;2022-08-19T08:01:44;8.10;;;6.43;;
51927;SDS011;37953;52.806;18.270;2022-08-19T08:04:11;11.75;;;6.30;;
51927;SDS011;37953;52.806;18.270;2022-08-19T08:06:55;10.18;;;5.72;;
51927;SDS011;37953;52.806;18.270;2022-08-19T08:09:46;11.43;;;6.30;;
51927;SDS011;37953;52.806;18.270;2022-08-19T08:12:15;11.75;;;6.35;;
51927;SDS011;37953;52.806;18.270;2022-08-19T08:14:49;14.20;;;5.93;;
51927;SDS011;37953;52.806;18.270;2022-08-19T08:17:19;13.00;;;5.72;;
51927;SDS011;37953;52.806;18.270;2022-08-19T08:19:46;13.68;;;5.63;;
51927;SDS011;37953;52.806;18.270;2022-08-19T08:22:16;14.00;;;5.95;;
51927;SDS011;37953;52.806;18.270;2022-08-19T08:25:04;24.40;;;18.35;;
51927;SDS011;37953;52.806;18.270;2022-08-19T08:27:36;25.50;;;16.60;;
51927;SDS011;37953;52.806;18.270;2022-08-19T08:30:06;16.13;;;7.90;;
51927;SDS011;37953;52.806;18.270;2022-08-19T08:32:35;11.63;;;6.50;;
51927;SDS011;37953;52.806;18.270;2022-08-19T08:35:03;9.52;;;6.07;;
51927;SDS011;37953;52.806;18.270;2022-08-19T08:37:36;8.77;;;6.18;;
51927;SDS011;37953;52.806;18.270;2022-08-19T08:43:20;40.97;;;27.33;;
51927;SDS011;37953;52.806;18.270;2022-08-19T08:46:00;33.25;;;21.98;;
51927;SDS011;37953;52.806;18.270;2022-08-19T08:51:31;11.35;;;6.60;;
51927;SDS011;37953;52.806;18.270;2022-08-19T08:54:07;12.13;;;6.40;;
51927;SDS011;37953;52.806;18.270;2022-08-19T08:56:38;11.95;;;5.82;;
51927;SDS011;37953;52.806;18.270;2022-08-19T09:01:50;10.85;;;5.55;;
51927;SDS011;37953;52.806;18.270;2022-08-19T09:04:16;12.48;;;5.40;;
51927;SDS011;37953;52.806;18.270;2022-08-19T09:09:42;11.52;;;5.35;;
51927;SDS011;37953;52.806;18.270;2022-08-19T09:15:03;9.68;;;5.30;;
51927;SDS011;37953;52.806;18.270;2022-08-19T09:17:29;12.88;;;5.57;;
51927;SDS011;37953;52.806;18.270;2022-08-19T09:19:59;8.52;;;5.40;;
51927;SDS011;37953;52.806;18.270;2022-08-19T09:22:40;11.55;;;5.78;;
51927;SDS011;37953;52.806;18.270;2022-08-19T09:25:12;13.18;;;5.43;;
51927;SDS011;37953;52.806;18.270;2022-08-19T09:27:47;7.45;;;5.35;;
51927;SDS011;37953;52.806;18.270;2022-08-19T09:30:19;9.10;;;5.65;;
51927;SDS011;37953;52.806;18.270;2022-08-19T09:32:49;11.80;;;5.80;;
51927;SDS011;37953;52.806;18.270;2022-08-19T09:35:18;12.23;;;6.07;;
51927;SDS011;37953;52.806;18.270;2022-08-19T09:37:47;10.15;;;5.90;;
51927;SDS011;37953;52.806;18.270;2022-08-19T09:40:15;12.00;;;6.13;;
51927;SDS011;37953;52.806;18.270;2022-08-19T09:42:45;10.50;;;5.45;;
51927;SDS011;37953;52.806;18.270;2022-08-19T09:45:13;6.93;;;5.17;;
51927;SDS011;37953;52.806;18.270;2022-08-19T09:47:42;8.27;;;5.63;;
51927;SDS011;37953;52.806;18.270;2022-08-19T09:50:09;10.20;;;6.43;;
51927;SDS011;37953;52.806;18.270;2022-08-19T09:52:37;11.65;;;6.75;;
51927;SDS011;37953;52.806;18.270;2022-08-19T09:55:07;10.60;;;6.00;;
51927;SDS011;37953;52.806;18.270;2022-08-19T09:57:35;10.95;;;5.88;;
51927;SDS011;37953;52.806;18.270;2022-08-19T10:00:03;11.13;;;6.00;;
51927;SDS011;37953;52.806;18.270;2022-08-19T10:02:32;11.52;;;5.82;;
51927;SDS011;37953;52.806;18.270;2022-08-19T10:04:58;16.38;;;6.10;;
51927;SDS011;37953;52.806;18.270;2022-08-19T10:07:43;8.63;;;5.85;;
51927;SDS011;37953;52.806;18.270;2022-08-19T10:10:10;8.93;;;5.55;;
51927;SDS011;37953;52.806;18.270;2022-08-19T10:12:36;15.07;;;5.70;;
51927;SDS011;37953;52.806;18.270;2022-08-19T10:15:04;15.18;;;5.80;;
51927;SDS011;37953;52.806;18.270;2022-08-19T10:17:31;9.63;;;5.85;;
51927;SDS011;37953;52.806;18.270;2022-08-19T10:20:01;11.77;;;5.75;;
51927;SDS011;37953;52.806;18.270;2022-08-19T10:22:30;10.68;;;5.50;;
51927;SDS011;37953;52.806;18.270;2022-08-19T10:24:57;14.70;;;5.53;;
51927;SDS011;37953;52.806;18.270;2022-08-19T10:27:22;13.35;;;6.10;;
51927;SDS011;37953;52.806;18.270;2022-08-19T10:29:50;10.85;;;5.80;;
51927;SDS011;37953;52.806;18.270;2022-08-19T10:32:16;9.95;;;5.90;;
51927;SDS011;37953;52.806;18.270;2022-08-19T10:34:42;13.82;;;5.95;;
51927;SDS011;37953;52.806;18.270;2022-08-19T10:37:08;12.02;;;6.15;;
51927;SDS011;37953;52.806;18.270;2022-08-19T10:39:35;10.35;;;5.80;;
51927;SDS011;37953;52.806;18.270;2022-08-19T10:42:05;8.77;;;5.35;;
51927;SDS011;37953;52.806;18.270;2022-08-19T10:44:33;13.63;;;6.40;;
51927;SDS011;37953;52.806;18.270;2022-08-19T10:47:01;11.80;;;6.13;;
51927;SDS011;37953;52.806;18.270;2022-08-19T10:49:28;11.95;;;6.05;;
51927;SDS011;37953;52.806;18.270;2022-08-19T10:51:56;17.80;;;6.97;;
51927;SDS011;37953;52.806;18.270;2022-08-19T10:54:40;10.35;;;5.80;;
51927;SDS011;37953;52.806;18.270;2022-08-19T10:57:25;9.50;;;5.70;;
51927;SDS011;37953;52.806;18.270;2022-08-19T10:59:56;8.77;;;6.32;;
51927;SDS011;37953;52.806;18.270;2022-08-19T11:02:22;10.75;;;6.15;;
51927;SDS011;37953;52.806;18.270;2022-08-19T11:04:49;9.27;;;6.00;;
51927;SDS011;37953;52.806;18.270;2022-08-19T11:07:16;11.30;;;5.88;;
51927;SDS011;37953;52.806;18.270;2022-08-19T11:09:43;10.75;;;6.05;;
51927;SDS011;37953;52.806;18.270;2022-08-19T11:12:09;12.35;;;5.75;;
51927;SDS011;37953;52.806;18.270;2022-08-19T11:14:36;10.43;;;5.68;;
51927;SDS011;37953;52.806;18.270;2022-08-19T11:17:03;13.10;;;6.13;;
51927;SDS011;37953;52.806;18.270;2022-08-19T11:19:31;12.75;;;6.07;;
51927;SDS011;37953;52.806;18.270;2022-08-19T11:21:57;8.73;;;5.60;;
51927;SDS011;37953;52.806;18.270;2022-08-19T11:24:27;15.32;;;6.13;;
51927;SDS011;37953;52.806;18.270;2022-08-19T11:26:54;11.75;;;6.10;;
51927;SDS011;37953;52.806;18.270;2022-08-19T11:29:26;14.20;;;5.85;;
51927;SDS011;37953;52.806;18.270;2022-08-19T11:31:53;14.13;;;5.43;;
51927;SDS011;37953;52.806;18.270;2022-08-19T11:34:21;19.77;;;5.72;;
51927;SDS011;37953;52.806;18.270;2022-08-19T11:36:50;16.77;;;5.82;;
51927;SDS011;37953;52.806;18.270;2022-08-19T11:39:18;11.30;;;5.90;;
51927;SDS011;37953;52.806;18.270;2022-08-19T11:41:47;9.52;;;5.63;;
51927;SDS011;37953;52.806;18.270;2022-08-19T11:44:14;12.23;;;5.85;;
51927;SDS011;37953;52.806;18.270;2022-08-19T11:46:41;9.70;;;5.13;;
51927;SDS011;37953;52.806;18.270;2022-08-19T11:49:13;11.90;;;5.80;;
51927;SDS011;37953;52.806;18.270;2022-08-19T11:51:40;9.10;;;5.30;;
51927;SDS011;37953;52.806;18.270;2022-08-19T11:54:08;12.38;;;5.05;;
51927;SDS011;37953;52.806;18.270;2022-08-19T11:56:37;13.55;;;5.43;;
51927;SDS011;37953;52.806;18.270;2022-08-19T11:59:04;9.25;;;5.35;;
51927;SDS011;37953;52.806;18.270;2022-08-19T12:01:30;13.68;;;4.95;;
51927;SDS011;37953;52.806;18.270;2022-08-19T12:03:58;10.48;;;5.13;;
51927;SDS011;37953;52.806;18.270;2022-08-19T12:06:27;10.57;;;5.95;;
51927;SDS011;37953;52.806;18.270;2022-08-19T12:08:55;11.43;;;5.15;;
51927;SDS011;37953;52.806;18.270;2022-08-19T12:11:25;11.93;;;5.43;;
51927;SDS011;37953;52.806;18.270;2022-08-19T12:13:52;14.57;;;5.55;;
51927;SDS011;37953;52.806;18.270;2022-08-19T12:16:26;11.88;;;5.38;;
51927;SDS011;37953;52.806;18.270;2022-08-19T12:18:54;10.40;;;5.05;;
51927;SDS011;37953;52.806;18.270;2022-08-19T12:21:23;12.18;;;5.15;;
51927;SDS011;37953;52.806;18.270;2022-08-19T12:23:54;11.20;;;4.85;;
51927;SDS011;37953;52.806;18.270;2022-08-19T12:26:21;10.60;;;4.93;;
51927;SDS011;37953;52.806;18.270;2022-08-19T12:28:49;12.88;;;5.43;;
51927;SDS011;37953;52.806;18.270;2022-08-19T12:31:16;14.00;;;5.40;;
51927;SDS011;37953;52.806;18.270;2022-08-19T12:33:44;10.15;;;5.07;;
51927;SDS011;37953;52.806;18.270;2022-08-19T12:36:12;13.18;;;6.05;;
51927;SDS011;37953;52.806;18.270;2022-08-19T12:38:40;10.45;;;4.90;;
51927;SDS011;37953;52.806;18.270;2022-08-19T12:41:08;12.32;;;4.47;;
51927;SDS011;37953;52.806;18.270;2022-08-19T12:43:36;18.63;;;5.43;;
51927;SDS011;37953;52.806;18.270;2022-08-19T12:46:06;11.45;;;5.25;;
51927;SDS011;37953;52.806;18.270;2022-08-19T12:48:34;16.50;;;5.68;;
51927;SDS011;37953;52.806;18.270;2022-08-19T12:51:08;16.65;;;5.03;;
51927;SDS011;37953;52.806;18.270;2022-08-19T12:53:37;15.80;;;5.45;;
51927;SDS011;37953;52.806;18.270;2022-08-19T12:56:03;13.00;;;4.47;;
51927;SDS011;37953;52.806;18.270;2022-08-19T12:58:30;15.07;;;4.82;;
51927;SDS011;37953;52.806;18.270;2022-08-19T13:00:58;10.32;;;4.60;;
51927;SDS011;37953;52.806;18.270;2022-08-19T13:03:24;16.35;;;5.00;;
51927;SDS011;37953;52.806;18.270;2022-08-19T13:08:21;10.35;;;4.38;;
51927;SDS011;37953;52.806;18.270;2022-08-19T13:10:47;12.43;;;4.63;;
51927;SDS011;37953;52.806;18.270;2022-08-19T13:13:13;15.95;;;4.70;;
51927;SDS011;37953;52.806;18.270;2022-08-19T13:15:41;8.18;;;4.07;;
51927;SDS011;37953;52.806;18.270;2022-08-19T13:18:10;7.80;;;4.22;;
51927;SDS011;37953;52.806;18.270;2022-08-19T13:20:38;9.48;;;3.95;;
51927;SDS011;37953;52.806;18.270;2022-08-19T13:23:09;10.63;;;4.25;;
51927;SDS011;37953;52.806;18.270;2022-08-19T13:25:35;11.45;;;4.03;;
51927;SDS011;37953;52.806;18.270;2022-08-19T13:28:01;10.50;;;4.05;;
51927;SDS011;37953;52.806;18.270;2022-08-19T13:30:29;14.05;;;4.50;;
51927;SDS011;37953;52.806;18.270;2022-08-19T13:33:13;17.25;;;4.32;;
51927;SDS011;37953;52.806;18.270;2022-08-19T13:35:43;22.95;;;5.05;;
51927;SDS011;37953;52.806;18.270;2022-08-19T13:38:11;11.77;;;3.92;;
51927;SDS011;37953;52.806;18.270;2022-08-19T13:40:39;9.32;;;4.10;;
51927;SDS011;37953;52.806;18.270;2022-08-19T13:43:07;17.80;;;4.45;;
51927;SDS011;37953;52.806;18.270;2022-08-19T13:45:34;9.10;;;3.63;;
51927;SDS011;37953;52.806;18.270;2022-08-19T13:48:02;10.93;;;4.00;;
51927;SDS011;37953;52.806;18.270;2022-08-19T13:50:39;12.07;;;3.72;;
51927;SDS011;37953;52.806;18.270;2022-08-19T13:53:07;12.75;;;3.72;;
51927;SDS011;37953;52.806;18.270;2022-08-19T13:55:36;11.85;;;3.97;;
51927;SDS011;37953;52.806;18.270;2022-08-19T13:58:06;12.77;;;3.83;;
51927;SDS011;37953;52.806;18.270;2022-08-19T14:00:34;13.48;;;4.07;;
51927;SDS011;37953;52.806;18.270;2022-08-19T14:03:05;12.05;;;4.32;;
51927;SDS011;37953;52.806;18.270;2022-08-19T14:05:32;9.65;;;3.80;;
51927;SDS011;37953;52.806;18.270;2022-08-19T14:07:58;10.00;;;3.95;;
51927;SDS011;37953;52.806;18.270;2022-08-19T14:10:26;12.82;;;3.80;;
51927;SDS011;37953;52.806;18.270;2022-08-19T14:12:54;12.75;;;4.45;;
51927;SDS011;37953;52.806;18.270;2022-08-19T14:15:23;9.45;;;3.78;;
51927;SDS011;37953;52.806;18.270;2022-08-19T14:17:51;8.00;;;3.78;;
51927;SDS011;37953;52.806;18.270;2022-08-19T14:20:17;14.18;;;4.97;;
51927;SDS011;37953;52.806;18.270;2022-08-19T14:22:44;9.95;;;4.22;;
51927;SDS011;37953;52.806;18.270;2022-08-19T14:25:13;10.93;;;4.35;;
51927;SDS011;37953;52.806;18.270;2022-08-19T14:27:42;10.00;;;4.03;;
51927;SDS011;37953;52.806;18.270;2022-08-19T14:30:09;9.30;;;4.25;;
51927;SDS011;37953;52.806;18.270;2022-08-19T14:32:38;11.75;;;4.05;;
51927;SDS011;37953;52.806;18.270;2022-08-19T14:35:04;11.43;;;4.35;;
51927;SDS011;37953;52.806;18.270;2022-08-19T14:37:33;7.57;;;4.38;;
51927;SDS011;37953;52.806;18.270;2022-08-19T14:40:00;9.15;;;3.95;;
51927;SDS011;37953;52.806;18.270;2022-08-19T14:42:28;12.35;;;4.05;;
51927;SDS011;37953;52.806;18.270;2022-08-19T14:44:58;16.50;;;4.90;;